Terminal Aerodrome Forecast
Issued by NWS

Home | Current Version | Previous Version | Text Only | Print | Product List | Glossary On
Versions: 1 2 3 4 5 6 7 8 9 10 11 12 13
000
FTAK31 PAJN 041700
TAFAPG
TAF
PAPG 041737Z 0418/0518 05005KT P6SM FEW035
     FM042100 05008KT P6SM SCT250
     FM050400 VRB03KT P6SM BKN220
     FM051000 00000KT P6SM BCFG SCT003 BKN200
      AMD LTD TO CLD VIS AND WIND 0506/0515=

USA.gov is the U.S. government's official web portal to all federal, state and local government web resources and services.